createdAt,value
2022-10-14T00:02:11.013Z,13.50
2022-10-14T00:04:39.208Z,13.40
2022-10-14T00:07:07.547Z,13.30
2022-10-14T00:09:43.407Z,13.30
2022-10-14T00:12:13.915Z,13.30
2022-10-14T00:14:45.287Z,13.30
2022-10-14T00:17:22.956Z,13.40
2022-10-14T00:19:54.572Z,13.40
2022-10-14T00:22:24.879Z,13.40
2022-10-14T00:24:58.205Z,13.40
2022-10-14T00:27:28.114Z,13.40
2022-10-14T00:30:02.864Z,13.50
2022-10-14T00:32:54.299Z,13.50
2022-10-14T00:35:28.614Z,13.40
2022-10-14T00:37:57.348Z,13.40
2022-10-14T00:40:25.964Z,13.50
2022-10-14T00:42:54.197Z,13.60
2022-10-14T00:45:25.322Z,13.70
2022-10-14T00:47:57.471Z,13.80
2022-10-14T00:50:28.779Z,13.80
2022-10-14T00:52:57.355Z,13.80
2022-10-14T00:55:25.656Z,13.90
2022-10-14T00:58:02.454Z,13.90
2022-10-14T01:00:41.453Z,13.90
2022-10-14T01:03:18.329Z,14.00
2022-10-14T01:05:55.511Z,14.00
2022-10-14T01:08:33.222Z,14.00
2022-10-14T01:11:14.403Z,13.90
2022-10-14T01:13:52.183Z,13.90
2022-10-14T01:16:26.456Z,13.90
2022-10-14T01:19:17.557Z,13.70
2022-10-14T01:21:49.720Z,13.70
2022-10-14T01:24:45.075Z,13.60
2022-10-14T01:27:37.547Z,13.60
2022-10-14T01:30:16.147Z,13.70
2022-10-14T01:33:04.231Z,13.70
2022-10-14T01:35:43.204Z,13.70
2022-10-14T01:38:15.326Z,13.60
2022-10-14T01:40:51.475Z,13.50
2022-10-14T01:43:22.370Z,13.60
2022-10-14T01:45:53.290Z,13.50
2022-10-14T01:48:25.534Z,13.50
2022-10-14T01:50:56.186Z,13.40
2022-10-14T01:53:35.209Z,13.40
2022-10-14T01:56:05.420Z,13.40
2022-10-14T01:58:38.137Z,13.30
2022-10-14T02:01:09.898Z,13.30
2022-10-14T02:03:42.873Z,13.30
2022-10-14T02:06:16.744Z,13.30
2022-10-14T02:09:04.789Z,13.40
2022-10-14T02:11:38.197Z,13.40
2022-10-14T02:14:14.357Z,13.40
2022-10-14T02:16:53.656Z,13.40
2022-10-14T02:19:28.501Z,13.40
2022-10-14T02:22:03.140Z,13.30
2022-10-14T02:24:35.293Z,13.30
2022-10-14T02:27:10.213Z,13.30
2022-10-14T02:29:56.646Z,13.30
2022-10-14T02:32:28.207Z,13.30
2022-10-14T02:35:00.885Z,13.30
2022-10-14T02:37:32.665Z,13.10
2022-10-14T02:40:11.415Z,13.20
2022-10-14T02:42:39.721Z,13.20
2022-10-14T02:45:13.109Z,13.20
2022-10-14T02:47:47.858Z,13.10
2022-10-14T02:50:19.221Z,13.20
2022-10-14T02:52:51.909Z,13.20
2022-10-14T02:55:23.965Z,13.20
2022-10-14T02:57:58.056Z,13.20
2022-10-14T03:00:26.694Z,13.10
2022-10-14T03:02:59.033Z,13.10
2022-10-14T03:05:27.565Z,13.10
2022-10-14T03:07:56.560Z,13.00
2022-10-14T03:10:57.557Z,13.00
2022-10-14T03:13:27.966Z,13.00
2022-10-14T03:16:02.665Z,13.00
2022-10-14T03:18:43.879Z,13.10
2022-10-14T03:21:26.507Z,13.10
2022-10-14T03:24:00.366Z,13.10
2022-10-14T03:27:09.594Z,13.10
2022-10-14T03:29:41.324Z,13.10
2022-10-14T03:32:16.844Z,13.10
2022-10-14T03:34:52.210Z,13.00
2022-10-14T03:37:25.950Z,13.00
2022-10-14T03:40:03.899Z,13.10
2022-10-14T03:42:41.246Z,13.10
2022-10-14T03:45:15.117Z,13.20
2022-10-14T03:47:46.514Z,13.20
2022-10-14T03:50:26.029Z,13.20
2022-10-14T03:52:59.764Z,13.20
2022-10-14T03:55:29.999Z,13.20
2022-10-14T03:58:00.506Z,13.30
2022-10-14T04:00:35.725Z,13.40
2022-10-14T04:03:06.395Z,13.50
2022-10-14T04:05:40.808Z,13.50
2022-10-14T04:08:10.488Z,13.60
2022-10-14T04:10:43.591Z,13.60
2022-10-14T04:13:11.951Z,13.70
2022-10-14T04:15:43.226Z,13.70
2022-10-14T04:18:24.700Z,13.70
2022-10-14T04:21:06.070Z,13.70
2022-10-14T04:23:43.500Z,13.70
2022-10-14T04:26:15.982Z,13.60
2022-10-14T04:28:50.386Z,13.70
2022-10-14T04:31:24.836Z,13.70
2022-10-14T04:33:53.110Z,13.60
2022-10-14T04:36:22.384Z,13.60
2022-10-14T04:38:50.288Z,13.60
2022-10-14T04:41:18.238Z,13.50
2022-10-14T04:43:46.150Z,13.50
2022-10-14T04:46:14.150Z,13.40
2022-10-14T04:48:42.194Z,13.50
2022-10-14T04:51:10.661Z,13.40
2022-10-14T04:53:40.261Z,13.40
2022-10-14T04:56:08.846Z,13.40
2022-10-14T04:58:36.796Z,13.40
2022-10-14T05:01:04.753Z,13.40
2022-10-14T05:03:32.758Z,13.40
2022-10-14T05:06:00.709Z,13.40
2022-10-14T05:08:28.684Z,13.40
2022-10-14T05:10:58.149Z,13.30
2022-10-14T05:13:26.446Z,13.40
2022-10-14T05:15:54.426Z,13.30
2022-10-14T05:18:22.438Z,13.30
2022-10-14T05:20:50.469Z,13.30
2022-10-14T05:23:18.911Z,13.30
2022-10-14T05:25:47.014Z,13.30
2022-10-14T05:28:16.421Z,13.30
2022-10-14T05:30:44.683Z,13.30
2022-10-14T05:33:12.980Z,13.30
2022-10-14T05:35:58.076Z,13.30
2022-10-14T05:38:27.816Z,13.30
2022-10-14T05:40:57.124Z,13.30
2022-10-14T05:43:31.994Z,13.30
2022-10-14T05:46:01.070Z,13.30
2022-10-14T05:48:29.036Z,13.30
2022-10-14T05:51:01.335Z,13.30
2022-10-14T05:53:29.526Z,13.30
2022-10-14T05:56:02.896Z,13.20
2022-10-14T05:58:32.350Z,13.20
2022-10-14T06:01:01.487Z,13.20
2022-10-14T06:03:29.688Z,13.30
2022-10-14T06:05:58.263Z,13.30
2022-10-14T06:08:26.693Z,13.30
2022-10-14T06:10:54.976Z,13.30
2022-10-14T06:13:23.535Z,13.40
2022-10-14T06:15:52.994Z,13.40
2022-10-14T06:18:21.145Z,13.40
2022-10-14T06:20:53.512Z,13.40
2022-10-14T06:23:21.727Z,13.50
2022-10-14T06:25:49.684Z,13.50
2022-10-14T06:28:17.828Z,13.50
2022-10-14T06:30:52.065Z,13.50
2022-10-14T06:33:20.427Z,13.60
2022-10-14T06:35:48.735Z,13.60
2022-10-14T06:38:17.722Z,13.60
2022-10-14T06:40:45.625Z,13.60
2022-10-14T06:43:13.546Z,13.60
2022-10-14T06:45:41.535Z,13.60
2022-10-14T06:48:10.932Z,13.50
2022-10-14T06:50:39.000Z,13.50
2022-10-14T06:53:07.207Z,13.50
2022-10-14T06:55:35.160Z,13.50
2022-10-14T06:58:03.214Z,13.50
2022-10-14T07:00:31.159Z,13.50
2022-10-14T07:03:00.164Z,13.50
2022-10-14T07:05:29.555Z,13.50
2022-10-14T07:07:58.676Z,13.50
2022-10-14T07:10:26.705Z,13.50
2022-10-14T07:12:55.608Z,13.50
2022-10-14T07:15:23.628Z,13.50
2022-10-14T07:17:51.651Z,13.50
2022-10-14T07:20:19.850Z,13.60
2022-10-14T07:22:49.335Z,13.60
2022-10-14T07:25:17.540Z,13.60
2022-10-14T07:27:45.584Z,13.60
2022-10-14T07:30:16.732Z,13.70
2022-10-14T07:32:45.705Z,13.70
2022-10-14T07:35:13.860Z,13.70
2022-10-14T07:37:42.045Z,13.80
2022-10-14T07:40:12.464Z,13.80
2022-10-14T07:42:40.528Z,13.90
2022-10-14T07:45:09.464Z,13.90
2022-10-14T07:47:37.435Z,14.00
2022-10-14T07:50:06.111Z,14.00
2022-10-14T07:52:34.196Z,14.00
2022-10-14T07:55:02.205Z,14.00
2022-10-14T07:57:31.672Z,14.00
2022-10-14T07:59:59.867Z,14.00
2022-10-14T08:02:28.003Z,14.10
2022-10-14T08:05:13.189Z,14.10
2022-10-14T08:07:44.999Z,14.20
2022-10-14T08:10:13.173Z,14.30
2022-10-14T08:12:42.579Z,14.50
2022-10-14T08:15:11.220Z,14.60
2022-10-14T08:17:39.179Z,14.70
2022-10-14T08:20:08.184Z,14.70
2022-10-14T08:22:36.430Z,14.80
2022-10-14T08:25:04.738Z,14.80
2022-10-14T08:27:32.773Z,14.90
2022-10-14T08:30:04.921Z,14.90
2022-10-14T08:32:35.246Z,15.00
2022-10-14T08:35:03.223Z,15.00
2022-10-14T08:37:31.212Z,15.10
2022-10-14T08:39:59.227Z,15.20
2022-10-14T08:42:44.371Z,15.30
2022-10-14T08:45:18.812Z,15.40
2022-10-14T08:47:48.609Z,15.50
2022-10-14T08:50:24.801Z,15.50
2022-10-14T08:52:57.462Z,15.60
2022-10-14T08:55:28.737Z,15.60
2022-10-14T08:58:01.232Z,15.60
2022-10-14T09:00:31.983Z,15.70
2022-10-14T09:03:03.596Z,15.80
2022-10-14T09:05:31.764Z,15.90
2022-10-14T09:08:01.521Z,16.00
2022-10-14T09:10:35.596Z,16.10
2022-10-14T09:13:11.246Z,16.20
2022-10-14T09:15:43.817Z,16.20
2022-10-14T09:18:22.360Z,16.30
2022-10-14T09:20:50.757Z,16.40
2022-10-14T09:23:20.408Z,16.50
2022-10-14T09:25:56.422Z,16.50
2022-10-14T09:28:30.826Z,16.60
2022-10-14T09:31:00.222Z,16.60
2022-10-14T09:33:29.521Z,16.70
2022-10-14T09:38:27.853Z,16.80
2022-10-14T09:40:59.737Z,16.70
2022-10-14T09:43:29.767Z,16.70
2022-10-14T09:46:01.505Z,16.70
2022-10-14T09:48:37.699Z,16.70
2022-10-14T09:51:10.027Z,16.70
2022-10-14T09:53:41.101Z,16.80
2022-10-14T09:56:10.681Z,16.90
2022-10-14T09:58:44.299Z,16.90
2022-10-14T10:01:19.236Z,17.00
2022-10-14T10:03:48.997Z,17.10
2022-10-14T10:06:20.241Z,17.00
2022-10-14T10:08:58.155Z,17.00
2022-10-14T10:11:30.973Z,16.90
2022-10-14T10:13:58.886Z,16.80
2022-10-14T10:16:32.705Z,16.70
2022-10-14T10:19:27.548Z,16.80
2022-10-14T10:21:56.072Z,16.90
2022-10-14T10:24:27.397Z,17.00
2022-10-14T10:26:58.252Z,17.00
2022-10-14T10:29:29.092Z,17.00
2022-10-14T10:32:07.573Z,17.00
2022-10-14T10:35:00.341Z,17.00
2022-10-14T10:37:30.967Z,17.00
2022-10-14T10:40:28.436Z,16.90
2022-10-14T10:43:13.269Z,16.90
2022-10-14T10:46:01.930Z,16.90
2022-10-14T10:48:41.171Z,16.80
2022-10-14T10:51:13.897Z,16.90
2022-10-14T10:53:55.471Z,17.10
2022-10-14T10:56:33.595Z,17.20
2022-10-14T10:59:30.405Z,17.30
2022-10-14T11:02:26.699Z,17.30
2022-10-14T11:05:04.338Z,17.40
2022-10-14T11:08:16.966Z,17.30
2022-10-14T11:11:17.962Z,17.30
2022-10-14T11:13:56.495Z,17.30
2022-10-14T11:16:33.318Z,17.30
2022-10-14T11:19:10.903Z,17.20
2022-10-14T11:21:49.903Z,17.30
2022-10-14T11:24:29.549Z,17.30
2022-10-14T11:27:04.399Z,17.30
2022-10-14T11:29:52.478Z,17.30
2022-10-14T11:32:27.739Z,17.30
2022-10-14T11:35:11.111Z,17.20
2022-10-14T11:37:51.004Z,17.10
2022-10-14T11:40:25.607Z,17.10
2022-10-14T11:43:07.007Z,17.10
2022-10-14T11:45:50.665Z,17.00
2022-10-14T11:48:29.733Z,17.00
2022-10-14T11:51:07.659Z,16.90
2022-10-14T11:54:00.946Z,16.80
2022-10-14T11:56:39.428Z,16.70
2022-10-14T11:59:36.629Z,16.70
2022-10-14T12:02:21.137Z,16.70
2022-10-14T12:04:57.048Z,16.70
2022-10-14T12:07:29.676Z,16.80
2022-10-14T12:10:01.398Z,16.80
2022-10-14T12:12:31.250Z,16.80
2022-10-14T12:15:02.445Z,16.80
2022-10-14T12:17:35.116Z,16.80
2022-10-14T12:20:04.881Z,16.80
2022-10-14T12:22:34.892Z,16.80
2022-10-14T12:25:11.903Z,16.70
2022-10-14T12:27:40.459Z,16.80
2022-10-14T12:30:33.106Z,16.60
2022-10-14T12:33:02.882Z,16.60
2022-10-14T12:35:59.045Z,16.40
2022-10-14T12:38:29.011Z,16.20
2022-10-14T12:41:34.962Z,16.00
2022-10-14T12:44:04.087Z,16.00
2022-10-14T12:46:32.440Z,15.90
2022-10-14T12:49:00.817Z,15.70
2022-10-14T12:51:28.740Z,15.70
2022-10-14T12:54:08.251Z,15.70
2022-10-14T12:56:41.129Z,15.70
2022-10-14T12:59:18.239Z,15.60
2022-10-14T13:01:46.254Z,15.60
2022-10-14T13:04:20.249Z,15.50
2022-10-14T13:07:45.821Z,15.50
2022-10-14T13:10:47.259Z,15.50
2022-10-14T13:13:52.252Z,15.50
2022-10-14T13:16:58.036Z,15.50
2022-10-14T13:19:44.560Z,15.60
2022-10-14T13:22:41.943Z,15.60
2022-10-14T13:25:19.829Z,15.70
2022-10-14T13:28:05.840Z,15.60
2022-10-14T13:30:47.529Z,15.60
2022-10-14T13:33:23.133Z,15.60
2022-10-14T13:36:01.017Z,15.60
2022-10-14T13:38:29.407Z,15.60
2022-10-14T13:40:59.250Z,15.50
2022-10-14T13:43:30.281Z,15.60
2022-10-14T13:46:06.798Z,15.70
2022-10-14T13:48:40.318Z,15.80
2022-10-14T13:51:36.901Z,15.80
2022-10-14T13:54:17.589Z,16.00
2022-10-14T13:56:45.949Z,16.10
2022-10-14T13:59:43.383Z,16.30
2022-10-14T14:02:16.422Z,16.40
2022-10-14T14:04:51.586Z,16.40
2022-10-14T14:07:47.759Z,16.40
2022-10-14T14:10:12.999Z,16.50
2022-10-14T14:12:43.627Z,16.50
2022-10-14T14:15:20.918Z,16.50
2022-10-14T14:17:50.604Z,16.60
2022-10-14T14:20:22.421Z,16.60
2022-10-14T14:22:51.180Z,16.60
2022-10-14T14:25:35.834Z,16.50
2022-10-14T14:28:07.065Z,16.50
2022-10-14T14:30:37.379Z,16.50
2022-10-14T14:33:11.006Z,16.50
2022-10-14T14:35:39.313Z,16.40
2022-10-14T14:38:25.423Z,16.20
2022-10-14T14:41:02.711Z,16.20
2022-10-14T14:43:35.845Z,16.30
2022-10-14T14:46:07.215Z,16.20
2022-10-14T14:48:38.444Z,16.20
2022-10-14T14:51:10.450Z,16.20
2022-10-14T14:53:39.064Z,16.20
2022-10-14T14:56:11.864Z,16.30
2022-10-14T14:58:50.357Z,16.40
2022-10-14T15:01:22.593Z,16.40
2022-10-14T15:04:12.715Z,16.40
2022-10-14T15:06:50.817Z,16.40
2022-10-14T15:09:24.780Z,16.40
2022-10-14T15:11:55.710Z,16.40
2022-10-14T15:14:34.391Z,16.40
2022-10-14T15:17:05.555Z,16.40
2022-10-14T15:19:38.922Z,16.30
2022-10-14T15:22:29.848Z,16.30
2022-10-14T15:25:24.153Z,16.30
2022-10-14T15:27:54.782Z,16.30
2022-10-14T15:30:35.645Z,16.20
2022-10-14T15:33:13.876Z,16.20
2022-10-14T15:35:44.650Z,16.20
2022-10-14T15:38:16.379Z,16.20
2022-10-14T15:40:45.450Z,16.10
2022-10-14T15:43:17.496Z,16.10
2022-10-14T15:46:08.407Z,16.10
2022-10-14T15:48:36.566Z,16.10
2022-10-14T15:51:06.624Z,16.00
2022-10-14T15:53:34.958Z,15.90
2022-10-14T15:56:03.017Z,15.90
2022-10-14T15:58:33.719Z,15.90
2022-10-14T16:01:02.189Z,15.90
2022-10-14T16:03:34.558Z,15.90
2022-10-14T16:06:05.747Z,15.90
2022-10-14T16:08:34.060Z,15.80
2022-10-14T16:11:04.276Z,15.80
2022-10-14T16:13:32.580Z,15.80
2022-10-14T16:16:04.880Z,15.80
2022-10-14T16:18:32.788Z,15.70
2022-10-14T16:21:00.805Z,15.60
2022-10-14T16:23:33.355Z,15.70
2022-10-14T16:26:01.884Z,15.60
2022-10-14T16:28:30.072Z,15.50
2022-10-14T16:31:00.280Z,15.60
2022-10-14T16:33:28.367Z,15.50
2022-10-14T16:35:57.520Z,15.50
2022-10-14T16:38:25.796Z,15.50
2022-10-14T16:40:59.650Z,15.30
2022-10-14T16:43:28.977Z,15.20
2022-10-14T16:45:59.580Z,15.20
2022-10-14T16:48:27.932Z,15.00
2022-10-14T16:50:56.052Z,15.00
2022-10-14T16:53:44.521Z,15.00
2022-10-14T16:56:36.400Z,15.00
2022-10-14T16:59:05.242Z,14.90
2022-10-14T17:01:33.324Z,14.90
2022-10-14T17:04:01.500Z,14.90
2022-10-14T17:06:29.530Z,14.90
2022-10-14T17:08:57.522Z,14.90
2022-10-14T17:11:28.134Z,14.70
2022-10-14T17:13:57.331Z,14.70
2022-10-14T17:16:28.389Z,14.60
2022-10-14T17:18:56.765Z,14.60
2022-10-14T17:21:28.087Z,14.60
2022-10-14T17:23:57.465Z,14.50
2022-10-14T17:26:27.547Z,14.50
2022-10-14T17:28:55.650Z,14.50
2022-10-14T17:31:24.427Z,14.40
2022-10-14T17:33:53.454Z,14.40
2022-10-14T17:36:23.753Z,14.40
2022-10-14T17:38:53.055Z,14.30
2022-10-14T17:41:21.029Z,14.30
2022-10-14T17:43:52.257Z,14.40
2022-10-14T17:46:23.824Z,14.50
2022-10-14T17:48:53.547Z,14.40
2022-10-14T17:51:22.878Z,14.40
2022-10-14T17:53:52.966Z,14.50
2022-10-14T17:56:21.085Z,14.60
2022-10-14T17:58:53.950Z,14.60
2022-10-14T18:01:36.692Z,14.60
2022-10-14T18:04:10.480Z,14.60
2022-10-14T18:06:39.342Z,14.60
2022-10-14T18:09:09.919Z,14.60
2022-10-14T18:12:07.161Z,14.60
2022-10-14T18:14:31.504Z,14.50
2022-10-14T18:16:59.905Z,14.50
2022-10-14T18:19:28.553Z,14.60
2022-10-14T18:21:56.778Z,14.60
2022-10-14T18:24:45.376Z,14.60
2022-10-14T18:27:34.027Z,14.60
2022-10-14T18:30:03.698Z,14.60
2022-10-14T18:32:31.793Z,14.60
2022-10-14T18:35:00.007Z,14.60
2022-10-14T18:37:28.211Z,14.60
2022-10-14T18:39:56.348Z,14.60
2022-10-14T18:42:24.732Z,14.60
2022-10-14T18:44:52.950Z,14.60
2022-10-14T18:47:22.384Z,14.50
2022-10-14T18:49:51.044Z,14.50
2022-10-14T18:52:21.012Z,14.50
2022-10-14T18:54:49.454Z,14.50
2022-10-14T18:57:18.490Z,14.60
2022-10-14T18:59:47.494Z,14.60
2022-10-14T19:02:15.692Z,14.50
2022-10-14T19:04:45.436Z,14.50
2022-10-14T19:07:13.677Z,14.40
2022-10-14T19:09:41.881Z,14.40
2022-10-14T19:12:24.362Z,14.40
2022-10-14T19:14:52.656Z,14.30
2022-10-14T19:17:20.774Z,14.40
2022-10-14T19:19:50.535Z,14.30
2022-10-14T19:22:18.613Z,14.40
2022-10-14T19:24:46.622Z,14.40
2022-10-14T19:27:14.759Z,14.50
2022-10-14T19:29:42.729Z,14.50
2022-10-14T19:32:10.658Z,14.40
2022-10-14T19:34:40.097Z,14.40
2022-10-14T19:37:11.070Z,14.50
2022-10-14T19:39:40.267Z,14.40
2022-10-14T19:42:08.275Z,14.30
2022-10-14T19:44:36.307Z,14.40
2022-10-14T19:47:04.390Z,14.50
2022-10-14T19:49:32.333Z,14.40
2022-10-14T19:52:00.316Z,14.30
2022-10-14T19:54:29.729Z,14.30
2022-10-14T19:56:57.677Z,14.30
2022-10-14T19:59:25.641Z,14.40
2022-10-14T20:01:53.666Z,14.40
2022-10-14T20:04:23.928Z,14.50
2022-10-14T20:06:54.579Z,14.50
2022-10-14T20:09:22.550Z,14.50
2022-10-14T20:11:53.006Z,14.50
2022-10-14T20:14:21.004Z,14.50
2022-10-14T20:16:53.536Z,14.60
2022-10-14T20:19:23.996Z,14.60
2022-10-14T20:21:51.966Z,14.60
2022-10-14T20:24:19.896Z,14.50
2022-10-14T20:26:47.922Z,14.50
2022-10-14T20:29:17.402Z,14.50
2022-10-14T20:31:45.361Z,14.40
2022-10-14T20:34:13.342Z,14.50
2022-10-14T20:36:41.305Z,14.50
2022-10-14T20:39:09.210Z,14.60
2022-10-14T20:41:37.169Z,14.60
2022-10-14T20:44:05.144Z,14.60
2022-10-14T20:46:34.518Z,14.70
2022-10-14T20:49:02.550Z,14.70
2022-10-14T20:51:30.598Z,14.70
2022-10-14T20:54:02.718Z,14.70
2022-10-14T20:56:33.588Z,14.70
2022-10-14T20:59:20.290Z,14.70
2022-10-14T21:01:49.864Z,14.70
2022-10-14T21:04:17.967Z,14.70
2022-10-14T21:06:45.892Z,14.70
2022-10-14T21:09:14.144Z,14.70
2022-10-14T21:11:43.124Z,14.70
2022-10-14T21:14:11.194Z,14.80
2022-10-14T21:16:39.806Z,14.70
2022-10-14T21:19:10.545Z,14.70
2022-10-14T21:21:40.321Z,14.70
2022-10-14T21:24:08.741Z,14.70
2022-10-14T21:26:36.841Z,14.70
2022-10-14T21:29:05.706Z,14.70
2022-10-14T21:31:33.854Z,14.70
2022-10-14T21:34:06.164Z,14.60
2022-10-14T21:36:36.182Z,14.60
2022-10-14T21:39:07.297Z,14.60
2022-10-14T21:41:35.876Z,14.60
2022-10-14T21:44:04.409Z,14.60
2022-10-14T21:46:32.666Z,14.60
2022-10-14T21:49:01.129Z,14.60
2022-10-14T21:51:31.141Z,14.60
2022-10-14T21:54:00.682Z,14.60
2022-10-14T21:56:28.870Z,14.60
2022-10-14T21:58:57.135Z,14.50
2022-10-14T22:01:27.408Z,14.60
2022-10-14T22:03:57.082Z,14.50
2022-10-14T22:06:25.354Z,14.50
2022-10-14T22:09:15.204Z,14.50
2022-10-14T22:12:03.610Z,14.50
2022-10-14T22:14:51.950Z,14.50
2022-10-14T22:17:39.992Z,14.50
2022-10-14T22:20:09.134Z,14.50
2022-10-14T22:22:37.385Z,14.50
2022-10-14T22:25:07.828Z,14.50
2022-10-14T22:27:35.838Z,14.40
2022-10-14T22:30:05.306Z,14.30
2022-10-14T22:32:33.359Z,14.40
2022-10-14T22:35:01.676Z,14.40
2022-10-14T22:37:31.848Z,14.30
2022-10-14T22:39:59.951Z,14.30
2022-10-14T22:44:57.419Z,14.30
2022-10-14T22:47:25.787Z,14.30
2022-10-14T22:49:54.087Z,14.30
2022-10-14T22:52:22.455Z,14.30
2022-10-14T22:54:50.875Z,14.30
2022-10-14T22:57:18.960Z,14.30
2022-10-14T22:59:48.492Z,14.30
2022-10-14T23:02:16.568Z,14.30
2022-10-14T23:04:44.560Z,14.30
2022-10-14T23:07:12.695Z,14.30
2022-10-14T23:09:40.826Z,14.30
2022-10-14T23:12:09.128Z,14.30
2022-10-14T23:14:37.239Z,14.30
2022-10-14T23:17:06.638Z,14.30
2022-10-14T23:19:34.707Z,14.30
2022-10-14T23:22:02.712Z,14.30
2022-10-14T23:24:30.853Z,14.20
2022-10-14T23:26:58.924Z,14.20
2022-10-14T23:29:26.837Z,14.30
2022-10-14T23:31:54.950Z,14.30
2022-10-14T23:34:24.446Z,14.30
2022-10-14T23:36:52.484Z,14.30
2022-10-14T23:39:20.602Z,14.30
2022-10-14T23:41:48.574Z,14.30
2022-10-14T23:44:16.536Z,14.30
2022-10-14T23:46:44.558Z,14.30
2022-10-14T23:49:26.037Z,14.30
2022-10-14T23:51:56.694Z,14.30
2022-10-14T23:54:25.012Z,14.20
2022-10-14T23:56:53.188Z,14.30
2022-10-14T23:59:21.259Z,14.20
